sensor_id;sensor_type;location;lat;lon;timestamp;temperature;humidity
975;DHT22;6115;49.296;10.602;2023-05-01T00:02:40;9.10;62.40
975;DHT22;6115;49.296;10.602;2023-05-01T00:07:40;9.00;62.30
975;DHT22;6115;49.296;10.602;2023-05-01T00:12:41;9.00;62.00
975;DHT22;6115;49.296;10.602;2023-05-01T00:17:41;9.00;61.90
975;DHT22;6115;49.296;10.602;2023-05-01T00:22:44;9.00;61.10
975;DHT22;6115;49.296;10.602;2023-05-01T00:27:44;9.00;61.20
975;DHT22;6115;49.296;10.602;2023-05-01T00:32:45;8.90;61.10
975;DHT22;6115;49.296;10.602;2023-05-01T00:37:46;8.90;60.80
975;DHT22;6115;49.296;10.602;2023-05-01T00:42:47;8.80;61.10
975;DHT22;6115;49.296;10.602;2023-05-01T00:47:49;8.80;61.00
975;DHT22;6115;49.296;10.602;2023-05-01T00:52:49;8.80;60.70
975;DHT22;6115;49.296;10.602;2023-05-01T00:57:50;8.70;60.70
975;DHT22;6115;49.296;10.602;2023-05-01T01:02:50;8.70;60.50
975;DHT22;6115;49.296;10.602;2023-05-01T01:13:16;8.70;60.70
975;DHT22;6115;49.296;10.602;2023-05-01T01:18:37;8.70;60.50
975;DHT22;6115;49.296;10.602;2023-05-01T01:24:11;8.60;61.00
975;DHT22;6115;49.296;10.602;2023-05-01T01:29:43;8.50;60.80
975;DHT22;6115;49.296;10.602;2023-05-01T01:34:50;8.50;61.20
975;DHT22;6115;49.296;10.602;2023-05-01T01:39:52;8.30;61.40
975;DHT22;6115;49.296;10.602;2023-05-01T01:44:55;8.30;61.70
975;DHT22;6115;49.296;10.602;2023-05-01T01:49:59;8.40;61.90
975;DHT22;6115;49.296;10.602;2023-05-01T01:55:04;8.30;62.10
975;DHT22;6115;49.296;10.602;2023-05-01T02:00:08;8.30;62.30
975;DHT22;6115;49.296;10.602;2023-05-01T02:05:13;8.10;62.70
975;DHT22;6115;49.296;10.602;2023-05-01T02:10:15;8.10;62.40
975;DHT22;6115;49.296;10.602;2023-05-01T02:15:17;8.10;62.10
975;DHT22;6115;49.296;10.602;2023-05-01T02:20:19;8.10;62.50
975;DHT22;6115;49.296;10.602;2023-05-01T02:25:20;8.00;62.80
975;DHT22;6115;49.296;10.602;2023-05-01T02:30:21;8.00;63.40
975;DHT22;6115;49.296;10.602;2023-05-01T02:35:22;7.90;63.30
975;DHT22;6115;49.296;10.602;2023-05-01T02:40:23;7.80;63.20
975;DHT22;6115;49.296;10.602;2023-05-01T02:45:24;7.80;63.20
975;DHT22;6115;49.296;10.602;2023-05-01T02:50:25;7.80;63.70
975;DHT22;6115;49.296;10.602;2023-05-01T02:55:26;7.70;64.20
975;DHT22;6115;49.296;10.602;2023-05-01T03:00:27;7.70;64.10
975;DHT22;6115;49.296;10.602;2023-05-01T03:05:28;7.70;64.40
975;DHT22;6115;49.296;10.602;2023-05-01T03:10:28;7.70;64.40
975;DHT22;6115;49.296;10.602;2023-05-01T03:15:29;7.60;64.40
975;DHT22;6115;49.296;10.602;2023-05-01T03:20:29;7.50;64.50
975;DHT22;6115;49.296;10.602;2023-05-01T03:25:30;7.50;64.70
975;DHT22;6115;49.296;10.602;2023-05-01T03:30:32;7.40;65.00
975;DHT22;6115;49.296;10.602;2023-05-01T03:35:34;7.40;65.10
975;DHT22;6115;49.296;10.602;2023-05-01T03:40:35;7.40;65.40
975;DHT22;6115;49.296;10.602;2023-05-01T03:45:35;7.40;65.60
975;DHT22;6115;49.296;10.602;2023-05-01T03:50:36;7.40;65.70
975;DHT22;6115;49.296;10.602;2023-05-01T03:55:43;7.40;66.00
975;DHT22;6115;49.296;10.602;2023-05-01T04:00:47;7.30;66.40
975;DHT22;6115;49.296;10.602;2023-05-01T04:05:47;7.30;66.70
975;DHT22;6115;49.296;10.602;2023-05-01T04:10:48;7.20;66.30
975;DHT22;6115;49.296;10.602;2023-05-01T04:15:48;7.20;66.20
975;DHT22;6115;49.296;10.602;2023-05-01T04:20:50;7.20;66.30
975;DHT22;6115;49.296;10.602;2023-05-01T04:25:50;7.10;66.20
975;DHT22;6115;49.296;10.602;2023-05-01T04:30:51;7.20;66.20
975;DHT22;6115;49.296;10.602;2023-05-01T04:35:51;7.10;66.40
975;DHT22;6115;49.296;10.602;2023-05-01T04:40:52;7.20;67.00
975;DHT22;6115;49.296;10.602;2023-05-01T04:45:53;7.20;67.60
975;DHT22;6115;49.296;10.602;2023-05-01T04:51:02;7.20;67.50
975;DHT22;6115;49.296;10.602;2023-05-01T04:56:03;7.10;68.20
975;DHT22;6115;49.296;10.602;2023-05-01T05:01:04;7.10;68.20
975;DHT22;6115;49.296;10.602;2023-05-01T05:06:05;7.20;68.30
975;DHT22;6115;49.296;10.602;2023-05-01T05:11:05;7.40;67.80
975;DHT22;6115;49.296;10.602;2023-05-01T05:16:06;7.60;68.00
975;DHT22;6115;49.296;10.602;2023-05-01T05:21:07;7.80;67.60
975;DHT22;6115;49.296;10.602;2023-05-01T05:26:09;8.10;67.00
975;DHT22;6115;49.296;10.602;2023-05-01T05:31:11;8.30;65.90
975;DHT22;6115;49.296;10.602;2023-05-01T05:36:11;8.50;63.80
975;DHT22;6115;49.296;10.602;2023-05-01T05:41:12;8.70;63.50
975;DHT22;6115;49.296;10.602;2023-05-01T05:46:13;8.80;62.90
975;DHT22;6115;49.296;10.602;2023-05-01T05:51:13;8.90;62.70
975;DHT22;6115;49.296;10.602;2023-05-01T05:56:14;9.10;60.70
975;DHT22;6115;49.296;10.602;2023-05-01T06:01:14;9.20;60.20
975;DHT22;6115;49.296;10.602;2023-05-01T06:06:15;9.30;59.70
975;DHT22;6115;49.296;10.602;2023-05-01T06:11:16;9.40;59.20
975;DHT22;6115;49.296;10.602;2023-05-01T06:16:17;9.60;58.30
975;DHT22;6115;49.296;10.602;2023-05-01T06:21:17;9.80;57.60
975;DHT22;6115;49.296;10.602;2023-05-01T06:26:19;10.00;54.90
975;DHT22;6115;49.296;10.602;2023-05-01T06:31:20;10.20;55.40
975;DHT22;6115;49.296;10.602;2023-05-01T06:36:21;10.40;55.90
975;DHT22;6115;49.296;10.602;2023-05-01T06:41:22;10.60;55.40
975;DHT22;6115;49.296;10.602;2023-05-01T06:46:22;11.00;55.00
975;DHT22;6115;49.296;10.602;2023-05-01T06:51:23;11.00;54.20
975;DHT22;6115;49.296;10.602;2023-05-01T06:56:24;11.30;54.00
975;DHT22;6115;49.296;10.602;2023-05-01T07:01:24;11.50;53.10
975;DHT22;6115;49.296;10.602;2023-05-01T07:06:25;11.70;53.00
975;DHT22;6115;49.296;10.602;2023-05-01T07:11:26;11.60;53.90
975;DHT22;6115;49.296;10.602;2023-05-01T07:16:27;11.70;53.20
975;DHT22;6115;49.296;10.602;2023-05-01T07:21:27;11.80;52.90
975;DHT22;6115;49.296;10.602;2023-05-01T07:26:28;11.90;52.10
975;DHT22;6115;49.296;10.602;2023-05-01T07:31:34;12.00;52.20
975;DHT22;6115;49.296;10.602;2023-05-01T07:36:34;12.10;51.50
975;DHT22;6115;49.296;10.602;2023-05-01T07:41:35;12.10;52.30
975;DHT22;6115;49.296;10.602;2023-05-01T07:46:35;12.30;51.80
975;DHT22;6115;49.296;10.602;2023-05-01T07:51:36;12.30;51.40
975;DHT22;6115;49.296;10.602;2023-05-01T07:56:38;12.50;51.70
975;DHT22;6115;49.296;10.602;2023-05-01T08:01:39;12.70;50.70
975;DHT22;6115;49.296;10.602;2023-05-01T08:06:40;12.90;50.20
975;DHT22;6115;49.296;10.602;2023-05-01T08:11:41;13.20;49.70
975;DHT22;6115;49.296;10.602;2023-05-01T08:16:48;13.10;50.60
975;DHT22;6115;49.296;10.602;2023-05-01T08:21:54;12.90;50.80
975;DHT22;6115;49.296;10.602;2023-05-01T08:26:55;13.00;51.10
975;DHT22;6115;49.296;10.602;2023-05-01T08:31:57;12.80;53.20
975;DHT22;6115;49.296;10.602;2023-05-01T08:36:58;12.60;55.00
975;DHT22;6115;49.296;10.602;2023-05-01T08:41:58;12.40;55.70
975;DHT22;6115;49.296;10.602;2023-05-01T08:52:14;12.10;58.50
975;DHT22;6115;49.296;10.602;2023-05-01T08:57:16;11.80;58.70
975;DHT22;6115;49.296;10.602;2023-05-01T09:02:17;11.80;60.30
975;DHT22;6115;49.296;10.602;2023-05-01T09:07:17;11.80;60.30
975;DHT22;6115;49.296;10.602;2023-05-01T09:12:24;11.60;59.30
975;DHT22;6115;49.296;10.602;2023-05-01T09:17:25;11.50;60.80
975;DHT22;6115;49.296;10.602;2023-05-01T09:22:26;11.60;60.70
975;DHT22;6115;49.296;10.602;2023-05-01T09:27:32;11.40;59.80
975;DHT22;6115;49.296;10.602;2023-05-01T09:32:33;11.40;59.50
975;DHT22;6115;49.296;10.602;2023-05-01T09:37:34;11.50;59.60
975;DHT22;6115;49.296;10.602;2023-05-01T09:42:39;11.60;59.70
975;DHT22;6115;49.296;10.602;2023-05-01T09:47:44;11.60;59.80
975;DHT22;6115;49.296;10.602;2023-05-01T09:52:49;11.60;59.10
975;DHT22;6115;49.296;10.602;2023-05-01T09:57:53;11.90;60.40
975;DHT22;6115;49.296;10.602;2023-05-01T10:02:53;12.10;59.30
975;DHT22;6115;49.296;10.602;2023-05-01T10:08:00;12.30;59.40
975;DHT22;6115;49.296;10.602;2023-05-01T10:13:17;12.40;57.70
975;DHT22;6115;49.296;10.602;2023-05-01T10:18:18;12.50;57.00
975;DHT22;6115;49.296;10.602;2023-05-01T10:23:21;12.40;56.00
975;DHT22;6115;49.296;10.602;2023-05-01T10:28:22;12.60;55.90
975;DHT22;6115;49.296;10.602;2023-05-01T10:33:24;12.40;55.80
975;DHT22;6115;49.296;10.602;2023-05-01T10:38:32;12.50;57.40
975;DHT22;6115;49.296;10.602;2023-05-01T10:43:37;12.60;56.90
975;DHT22;6115;49.296;10.602;2023-05-01T10:53:39;13.00;56.00
975;DHT22;6115;49.296;10.602;2023-05-01T11:03:40;13.10;54.70
975;DHT22;6115;49.296;10.602;2023-05-01T11:08:41;13.20;55.60
975;DHT22;6115;49.296;10.602;2023-05-01T11:13:57;13.00;55.70
975;DHT22;6115;49.296;10.602;2023-05-01T11:18:58;13.10;54.70
975;DHT22;6115;49.296;10.602;2023-05-01T11:23:59;13.30;54.90
975;DHT22;6115;49.296;10.602;2023-05-01T11:29:00;13.20;54.30
975;DHT22;6115;49.296;10.602;2023-05-01T11:34:01;13.30;53.30
975;DHT22;6115;49.296;10.602;2023-05-01T11:39:02;13.10;54.80
975;DHT22;6115;49.296;10.602;2023-05-01T11:44:03;13.30;54.60
975;DHT22;6115;49.296;10.602;2023-05-01T11:49:04;13.60;55.00
975;DHT22;6115;49.296;10.602;2023-05-01T11:54:09;13.70;54.40
975;DHT22;6115;49.296;10.602;2023-05-01T11:59:12;13.70;53.60
975;DHT22;6115;49.296;10.602;2023-05-01T12:04:23;13.90;52.90
975;DHT22;6115;49.296;10.602;2023-05-01T12:09:25;14.00;52.90
975;DHT22;6115;49.296;10.602;2023-05-01T12:14:28;14.10;51.90
975;DHT22;6115;49.296;10.602;2023-05-01T12:19:29;14.20;51.30
975;DHT22;6115;49.296;10.602;2023-05-01T12:24:31;14.30;50.90
975;DHT22;6115;49.296;10.602;2023-05-01T12:29:41;14.80;51.50
975;DHT22;6115;49.296;10.602;2023-05-01T12:34:46;14.70;51.60
975;DHT22;6115;49.296;10.602;2023-05-01T12:40:01;14.80;51.70
975;DHT22;6115;49.296;10.602;2023-05-01T12:45:04;15.00;49.50
975;DHT22;6115;49.296;10.602;2023-05-01T12:50:05;14.30;49.70
975;DHT22;6115;49.296;10.602;2023-05-01T12:55:07;14.40;51.10
975;DHT22;6115;49.296;10.602;2023-05-01T13:00:09;14.70;49.70
975;DHT22;6115;49.296;10.602;2023-05-01T13:05:10;15.20;49.70
975;DHT22;6115;49.296;10.602;2023-05-01T13:10:12;15.50;47.20
975;DHT22;6115;49.296;10.602;2023-05-01T13:15:20;15.60;46.40
975;DHT22;6115;49.296;10.602;2023-05-01T13:20:25;15.70;46.60
975;DHT22;6115;49.296;10.602;2023-05-01T13:25:28;15.80;48.60
975;DHT22;6115;49.296;10.602;2023-05-01T13:30:33;15.90;46.50
975;DHT22;6115;49.296;10.602;2023-05-01T13:35:33;15.90;46.60
975;DHT22;6115;49.296;10.602;2023-05-01T13:40:35;16.10;46.10
975;DHT22;6115;49.296;10.602;2023-05-01T13:45:35;16.00;46.60
975;DHT22;6115;49.296;10.602;2023-05-01T13:50:38;16.20;47.20
975;DHT22;6115;49.296;10.602;2023-05-01T13:55:41;16.20;48.40
975;DHT22;6115;49.296;10.602;2023-05-01T14:00:43;16.60;46.70
975;DHT22;6115;49.296;10.602;2023-05-01T14:05:44;16.20;46.40
975;DHT22;6115;49.296;10.602;2023-05-01T14:10:46;15.80;48.30
975;DHT22;6115;49.296;10.602;2023-05-01T14:15:47;15.60;48.00
975;DHT22;6115;49.296;10.602;2023-05-01T14:20:48;15.50;47.70
975;DHT22;6115;49.296;10.602;2023-05-01T14:25:50;15.50;48.50
975;DHT22;6115;49.296;10.602;2023-05-01T14:30:51;15.70;47.30
975;DHT22;6115;49.296;10.602;2023-05-01T14:35:54;15.80;46.60
975;DHT22;6115;49.296;10.602;2023-05-01T14:40:54;15.90;46.50
975;DHT22;6115;49.296;10.602;2023-05-01T14:45:55;15.90;46.50
975;DHT22;6115;49.296;10.602;2023-05-01T14:50:56;16.00;46.60
975;DHT22;6115;49.296;10.602;2023-05-01T14:55:58;16.30;46.90
975;DHT22;6115;49.296;10.602;2023-05-01T15:00:59;16.20;47.10
975;DHT22;6115;49.296;10.602;2023-05-01T15:06:01;16.30;47.30
975;DHT22;6115;49.296;10.602;2023-05-01T15:11:03;16.20;46.80
975;DHT22;6115;49.296;10.602;2023-05-01T15:16:04;15.70;48.10
975;DHT22;6115;49.296;10.602;2023-05-01T15:21:05;15.60;48.50
975;DHT22;6115;49.296;10.602;2023-05-01T15:26:05;15.80;48.60
975;DHT22;6115;49.296;10.602;2023-05-01T15:31:06;16.20;47.80
975;DHT22;6115;49.296;10.602;2023-05-01T15:36:06;16.40;46.90
975;DHT22;6115;49.296;10.602;2023-05-01T15:41:07;16.40;46.90
975;DHT22;6115;49.296;10.602;2023-05-01T15:46:07;16.30;46.90
975;DHT22;6115;49.296;10.602;2023-05-01T15:51:08;16.30;46.40
975;DHT22;6115;49.296;10.602;2023-05-01T15:56:08;16.50;46.40
975;DHT22;6115;49.296;10.602;2023-05-01T16:01:11;16.50;46.80
975;DHT22;6115;49.296;10.602;2023-05-01T16:06:13;16.10;46.30
975;DHT22;6115;49.296;10.602;2023-05-01T16:11:15;16.00;46.60
975;DHT22;6115;49.296;10.602;2023-05-01T16:16:22;16.00;46.60
975;DHT22;6115;49.296;10.602;2023-05-01T16:21:24;16.20;46.80
975;DHT22;6115;49.296;10.602;2023-05-01T16:26:26;16.50;46.50
975;DHT22;6115;49.296;10.602;2023-05-01T16:31:38;16.70;45.60
975;DHT22;6115;49.296;10.602;2023-05-01T16:36:40;16.70;45.70
975;DHT22;6115;49.296;10.602;2023-05-01T16:41:45;16.70;45.70
975;DHT22;6115;49.296;10.602;2023-05-01T16:46:53;16.50;47.10
975;DHT22;6115;49.296;10.602;2023-05-01T16:51:54;16.50;47.00
975;DHT22;6115;49.296;10.602;2023-05-01T16:56:57;16.50;47.00
975;DHT22;6115;49.296;10.602;2023-05-01T17:01:58;16.40;46.90
975;DHT22;6115;49.296;10.602;2023-05-01T17:06:58;16.10;47.20
975;DHT22;6115;49.296;10.602;2023-05-01T17:11:59;15.90;48.00
975;DHT22;6115;49.296;10.602;2023-05-01T17:16:59;15.90;48.70
975;DHT22;6115;49.296;10.602;2023-05-01T17:22:00;15.80;47.70
975;DHT22;6115;49.296;10.602;2023-05-01T17:27:00;15.90;47.30
975;DHT22;6115;49.296;10.602;2023-05-01T17:32:02;15.90;47.50
975;DHT22;6115;49.296;10.602;2023-05-01T17:37:04;15.80;47.10
975;DHT22;6115;49.296;10.602;2023-05-01T17:42:05;15.60;47.60
975;DHT22;6115;49.296;10.602;2023-05-01T17:47:06;15.50;47.50
975;DHT22;6115;49.296;10.602;2023-05-01T17:52:07;15.40;47.40
975;DHT22;6115;49.296;10.602;2023-05-01T17:57:08;15.30;48.70
975;DHT22;6115;49.296;10.602;2023-05-01T18:02:09;15.10;49.50
975;DHT22;6115;49.296;10.602;2023-05-01T18:07:10;14.90;49.90
975;DHT22;6115;49.296;10.602;2023-05-01T18:12:11;14.80;50.00
975;DHT22;6115;49.296;10.602;2023-05-01T18:17:17;14.70;50.00
975;DHT22;6115;49.296;10.602;2023-05-01T18:22:24;14.60;50.40
975;DHT22;6115;49.296;10.602;2023-05-01T18:27:26;14.40;51.00
975;DHT22;6115;49.296;10.602;2023-05-01T18:32:26;14.20;50.70
975;DHT22;6115;49.296;10.602;2023-05-01T18:37:28;14.00;50.70
975;DHT22;6115;49.296;10.602;2023-05-01T18:42:29;14.00;51.60
975;DHT22;6115;49.296;10.602;2023-05-01T18:47:29;13.70;52.10
975;DHT22;6115;49.296;10.602;2023-05-01T18:52:31;13.60;53.10
975;DHT22;6115;49.296;10.602;2023-05-01T18:57:32;13.40;53.40
975;DHT22;6115;49.296;10.602;2023-05-01T19:02:32;13.20;54.10
975;DHT22;6115;49.296;10.602;2023-05-01T19:07:33;13.00;54.60
975;DHT22;6115;49.296;10.602;2023-05-01T19:12:34;12.80;55.30
975;DHT22;6115;49.296;10.602;2023-05-01T19:17:34;12.60;55.90
975;DHT22;6115;49.296;10.602;2023-05-01T19:22:35;12.40;56.70
975;DHT22;6115;49.296;10.602;2023-05-01T19:27:35;12.30;56.90
975;DHT22;6115;49.296;10.602;2023-05-01T19:32:36;12.20;57.50
975;DHT22;6115;49.296;10.602;2023-05-01T19:37:38;12.00;57.60
975;DHT22;6115;49.296;10.602;2023-05-01T19:42:39;11.90;58.40
975;DHT22;6115;49.296;10.602;2023-05-01T19:47:39;11.80;58.70
975;DHT22;6115;49.296;10.602;2023-05-01T19:52:40;11.70;58.70
975;DHT22;6115;49.296;10.602;2023-05-01T19:57:40;11.40;59.20
975;DHT22;6115;49.296;10.602;2023-05-01T20:02:41;11.30;59.90
975;DHT22;6115;49.296;10.602;2023-05-01T20:07:42;11.20;60.30
975;DHT22;6115;49.296;10.602;2023-05-01T20:12:42;11.10;60.20
975;DHT22;6115;49.296;10.602;2023-05-01T20:17:43;11.10;60.20
975;DHT22;6115;49.296;10.602;2023-05-01T20:23:08;11.10;60.60
975;DHT22;6115;49.296;10.602;2023-05-01T20:28:10;10.90;60.90
975;DHT22;6115;49.296;10.602;2023-05-01T20:33:12;10.90;61.60
975;DHT22;6115;49.296;10.602;2023-05-01T20:38:13;10.80;62.10
975;DHT22;6115;49.296;10.602;2023-05-01T20:43:14;10.60;62.80
975;DHT22;6115;49.296;10.602;2023-05-01T20:48:14;10.60;63.30
975;DHT22;6115;49.296;10.602;2023-05-01T20:53:15;10.60;63.00
975;DHT22;6115;49.296;10.602;2023-05-01T20:58:16;10.50;62.90
975;DHT22;6115;49.296;10.602;2023-05-01T21:03:16;10.40;63.00
975;DHT22;6115;49.296;10.602;2023-05-01T21:08:17;10.40;63.30
975;DHT22;6115;49.296;10.602;2023-05-01T21:13:17;10.40;63.50
975;DHT22;6115;49.296;10.602;2023-05-01T21:18:20;10.30;63.90
975;DHT22;6115;49.296;10.602;2023-05-01T21:23:24;10.30;64.20
975;DHT22;6115;49.296;10.602;2023-05-01T21:28:25;10.20;64.30
975;DHT22;6115;49.296;10.602;2023-05-01T21:33:25;10.20;64.30
975;DHT22;6115;49.296;10.602;2023-05-01T21:38:27;10.10;64.30
975;DHT22;6115;49.296;10.602;2023-05-01T21:43:31;9.90;65.10
975;DHT22;6115;49.296;10.602;2023-05-01T21:48:33;9.80;65.60
975;DHT22;6115;49.296;10.602;2023-05-01T21:53:34;9.80;65.90
975;DHT22;6115;49.296;10.602;2023-05-01T21:58:35;9.60;66.20
975;DHT22;6115;49.296;10.602;2023-05-01T22:03:38;9.60;66.70
975;DHT22;6115;49.296;10.602;2023-05-01T22:08:40;9.50;66.90
975;DHT22;6115;49.296;10.602;2023-05-01T22:13:42;9.50;67.30
975;DHT22;6115;49.296;10.602;2023-05-01T22:18:42;9.40;67.30
975;DHT22;6115;49.296;10.602;2023-05-01T22:23:43;9.40;67.30
975;DHT22;6115;49.296;10.602;2023-05-01T22:28:43;9.30;67.20
975;DHT22;6115;49.296;10.602;2023-05-01T22:33:44;9.20;67.30
975;DHT22;6115;49.296;10.602;2023-05-01T22:38:45;9.20;67.20
975;DHT22;6115;49.296;10.602;2023-05-01T22:43:45;9.20;67.40
975;DHT22;6115;49.296;10.602;2023-05-01T22:48:46;9.10;67.50
975;DHT22;6115;49.296;10.602;2023-05-01T22:53:46;9.10;67.60
975;DHT22;6115;49.296;10.602;2023-05-01T22:58:47;9.00;67.70
975;DHT22;6115;49.296;10.602;2023-05-01T23:03:49;9.00;68.00
975;DHT22;6115;49.296;10.602;2023-05-01T23:08:52;8.80;68.20
975;DHT22;6115;49.296;10.602;2023-05-01T23:13:53;8.60;68.80
975;DHT22;6115;49.296;10.602;2023-05-01T23:18:55;8.60;68.80
975;DHT22;6115;49.296;10.602;2023-05-01T23:23:55;8.60;68.80
975;DHT22;6115;49.296;10.602;2023-05-01T23:28:56;8.60;68.90
975;DHT22;6115;49.296;10.602;2023-05-01T23:34:01;8.60;68.80
975;DHT22;6115;49.296;10.602;2023-05-01T23:39:01;8.50;69.60
975;DHT22;6115;49.296;10.602;2023-05-01T23:44:02;8.50;68.80
975;DHT22;6115;49.296;10.602;2023-05-01T23:49:03;8.40;68.70
975;DHT22;6115;49.296;10.602;2023-05-01T23:54:04;8.40;68.90
975;DHT22;6115;49.296;10.602;2023-05-01T23:59:05;8.30;69.10
